M I D A S
Marine Information and Data Acquisition System
Tripno 1072 of the Zeeleeuw from 2006-04-19 07:21:08 to 2006-04-19 10:26:23
Back to CruiseResearch ActivitiesStationsMapUnderway DataData graphs

EquipmentUnitsComments
TimeDGPSUTC
LatitudeDGPSDM.mWGS84
LongitudeDGPSDM.mWGS84
SpeedMeteo Stationm/sRelative wind speed
DirectionMeteo StationdegRelative wind direction
TemperatureMeteo Stationdeg CelciusAir temperature
PressureMeteo StationPaAtmospheric pressure
HumidityMeteo Station%Relative humidity
Missing or incorrect values are displayed as -999
Metereological data collected by the RV Zeeleeuw from 2006-04-19 07:20:00 to 2006-04-19 10:39:15
Time Latitude Longitude Speed Direction Temperature Pressure Humidity
2006-04-19 07:21 51°13.616 2°56.031 -999 149 8.9 101430 93
2006-04-19 07:22 51°13.638 2°55.933 -999 130 8.9 101430 92
2006-04-19 07:23 51°13.673 2°55.834 -999 123 8.9 101430 92
2006-04-19 07:24 51°13.707 2°55.744 -999 136 9 101430 92
2006-04-19 07:25 51°13.721 2°55.738 -999 164 8.9 101430 92
2006-04-19 07:26 51°13.716 2°55.726 -999 199 9 101430 92
2006-04-19 07:27 51°13.743 2°55.712 -999 257 9.1 101440 92
2006-04-19 07:28 51°13.824 2°55.642 -999 318 9.1 101430 91
2006-04-19 07:29 51°13.924 2°55.563 -999 284 9.1 101430 91
2006-04-19 07:30 51°14.014 2°55.499 -999 287 9.1 101430 91
2006-04-19 07:31 51°14.102 2°55.431 -999 274 9.1 101420 90
2006-04-19 07:32 51°14.203 2°55.334 -999 326 9.1 101420 90
2006-04-19 07:33 51°14.307 2°55.171 -999 38 9.2 101410 90
2006-04-19 07:34 51°14.394 2°54.965 -999 322 9.1 101420 90
2006-04-19 07:35 51°14.425 2°54.668 -999 329 9.1 101390 90
2006-04-19 07:36 51°14.355 2°54.352 -999 351 9 101380 90
2006-04-19 07:37 51°14.248 2°54.044 -999 352 9 101380 90
2006-04-19 07:38 51°14.142 2°53.744 -999 350 9 101380 90
2006-04-19 07:39 51°14.037 2°53.431 -999 351 9 101370 90
2006-04-19 07:40 51°13.929 2°53.128 -999 354 9 101380 90
2006-04-19 07:41 51°13.821 2°52.823 -999 349 9 101370 90
2006-04-19 07:42 51°13.711 2°52.526 -999 351 9 101370 91
2006-04-19 07:43 51°13.603 2°52.221 -999 349 9 101370 90
2006-04-19 07:44 51°13.485 2°51.927 -999 351 9.1 101370 91
2006-04-19 07:45 51°13.365 2°51.628 -999 355 9 101380 90
2006-04-19 07:46 51°13.272 2°51.314 -999 339 9.1 101360 91
2006-04-19 07:47 51°13.201 2°50.987 -999 348 9.1 101370 91
2006-04-19 07:48 51°13.124 2°50.659 -999 350 9.1 101360 91
2006-04-19 07:49 51°13.039 2°50.337 -999 357 9.1 101370 91
2006-04-19 07:50 51°12.949 2°50.009 -999 347 9.2 101380 91
2006-04-19 07:51 51°12.851 2°49.697 -999 359 9.2 101380 91
2006-04-19 07:52 51°12.729 2°49.404 -999 356 9.2 101400 91
2006-04-19 07:53 51°12.577 2°49.149 -999 3 9.2 101380 90
2006-04-19 07:54 51°12.427 2°48.897 -999 6 9.2 101400 90
2006-04-19 07:55 51°12.276 2°48.628 -999 358 9.3 101400 90
2006-04-19 07:56 51°12.135 2°48.377 -999 1 9.3 101400 90
2006-04-19 07:57 51°12.053 2°48.224 -999 18 9.3 101410 90
2006-04-19 07:58 51°12.038 2°48.198 -999 74 9.3 101420 90
2006-04-19 07:59 51°12.043 2°48.184 -999 86 9.2 101430 90
2006-04-19 08:00 51°12.046 2°48.17 -999 103 9.2 101420 90
2006-04-19 08:01 51°12.048 2°48.159 -999 117 9.2 101430 91
2006-04-19 08:02 51°12.048 2°48.148 -999 106 9.3 101430 91
2006-04-19 08:03 51°12.048 2°48.138 -999 110 9.3 101430 91
2006-04-19 08:04 51°12.047 2°48.128 -999 114 9.3 101430 90
2006-04-19 08:05 51°12.047 2°48.117 -999 112 9.3 101430 90
2006-04-19 08:06 51°12.046 2°48.107 -999 116 9.3 101430 90
2006-04-19 08:07 51°12.046 2°48.097 -999 109 9.3 101430 90
2006-04-19 08:08 51°12.045 2°48.087 -999 113 9.3 101430 91
2006-04-19 08:09 51°12.045 2°48.076 -999 106 9.3 101430 90
2006-04-19 08:10 51°12.044 2°48.066 -999 112 9.4 101430 90
2006-04-19 08:11 51°12.023 2°48.071 -999 51 9.3 101430 89
2006-04-19 08:12 51°11.968 2°48.003 -999 344 9.3 101410 89
2006-04-19 08:13 51°11.992 2°47.888 -999 261 9.4 101410 89
2006-04-19 08:14 51°12.055 2°47.877 -999 217 9.4 101430 89
2006-04-19 08:15 51°12.128 2°47.906 -999 218 9.4 101430 88
2006-04-19 08:16 51°12.178 2°47.964 -999 163 9.6 101430 89
2006-04-19 08:17 51°12.217 2°48.026 -999 178 9.6 101440 88
2006-04-19 08:18 51°12.252 2°48.09 -999 155 9.5 101430 88
2006-04-19 08:19 51°12.283 2°48.161 -999 153 9.5 101440 88
2006-04-19 08:20 51°12.315 2°48.23 -999 165 9.5 101430 88
2006-04-19 08:21 51°12.35 2°48.294 -999 159 9.4 101430 88
2006-04-19 08:22 51°12.382 2°48.359 -999 156 9.5 101430 88
2006-04-19 08:23 51°12.41 2°48.431 -999 149 9.5 101430 89
2006-04-19 08:24 51°12.436 2°48.5 -999 154 9.5 101440 89
2006-04-19 08:25 51°12.466 2°48.567 -999 157 9.5 101440 89
2006-04-19 08:26 51°12.5 2°48.631 -999 160 9.5 101440 89
2006-04-19 08:27 51°12.531 2°48.697 -999 153 9.5 101430 89
2006-04-19 08:28 51°12.56 2°48.765 -999 150 9.5 101430 89
2006-04-19 08:29 51°12.589 2°48.833 -999 152 9.5 101430 89
2006-04-19 08:30 51°12.618 2°48.9 -999 160 9.5 101430 89
2006-04-19 08:31 51°12.648 2°48.969 -999 157 9.5 101430 89
2006-04-19 08:32 51°12.678 2°49.035 -999 159 9.5 101430 88
2006-04-19 08:33 51°12.708 2°49.102 -999 145 9.6 101440 89
2006-04-19 08:34 51°12.736 2°49.169 -999 154 9.6 101430 88
2006-04-19 08:35 51°12.766 2°49.24 -999 159 9.6 101440 88
2006-04-19 08:36 51°12.795 2°49.309 -999 167 9.6 101430 88
2006-04-19 08:37 51°12.825 2°49.375 -999 158 9.6 101440 88
2006-04-19 08:38 51°12.86 2°49.437 -999 162 9.6 101440 88
2006-04-19 08:39 51°12.886 2°49.508 -999 143 9.6 101430 89
2006-04-19 08:40 51°12.91 2°49.604 -999 138 9.6 101440 89
2006-04-19 08:41 51°12.911 2°49.711 -999 108 9.7 101430 88
2006-04-19 08:42 51°12.881 2°49.812 -999 93 9.7 101440 88
2006-04-19 08:43 51°12.841 2°49.903 -999 107 9.7 101430 88
2006-04-19 08:44 51°12.851 2°49.965 -999 182 9.7 101440 88
2006-04-19 08:45 51°12.883 2°49.974 -999 225 9.8 101440 87
2006-04-19 08:46 51°12.939 2°49.973 -999 215 9.8 101440 87
2006-04-19 08:47 51°13.006 2°50.106 -999 156 9.9 101430 87
2006-04-19 08:48 51°13.106 2°50.331 -999 127 9.9 101430 86
2006-04-19 08:49 51°13.204 2°50.605 -999 121 9.9 101430 86
2006-04-19 08:50 51°13.3 2°50.894 -999 116 10 101430 86
2006-04-19 08:51 51°13.401 2°51.174 -999 114 10 101430 86
2006-04-19 08:52 51°13.503 2°51.447 -999 117 9.9 101430 86
2006-04-19 08:53 51°13.599 2°51.73 -999 100 10 101430 86
2006-04-19 08:54 51°13.696 2°52.015 -999 99 10 101430 87
2006-04-19 08:55 51°13.791 2°52.297 -999 97 10 101430 87
2006-04-19 08:56 51°13.889 2°52.568 -999 105 10 101430 87
2006-04-19 08:57 51°13.988 2°52.85 -999 118 10 101430 87
2006-04-19 08:58 51°14.085 2°53.121 -999 108 9.9 101430 86
2006-04-19 08:59 51°14.185 2°53.4 -999 104 9.9 101430 86
2006-04-19 09:00 51°14.289 2°53.656 -999 160 10 101440 85
2006-04-19 09:01 51°14.465 2°53.815 -999 259 10 101440 86
2006-04-19 09:02 51°14.649 2°53.934 -999 280 10.1 101440 85
2006-04-19 09:03 51°14.857 2°53.879 -999 292 10.1 101430 85
2006-04-19 09:04 51°15.002 2°53.645 -999 321 10.2 101420 85
2006-04-19 09:05 51°15.018 2°53.304 -999 343 10.1 101380 85
2006-04-19 09:06 51°14.952 2°52.956 -999 345 10.1 101380 85
2006-04-19 09:07 51°14.89 2°52.614 -999 350 10.2 101390 85
2006-04-19 09:08 51°14.823 2°52.279 -999 347 10.2 101390 85
2006-04-19 09:09 51°14.733 2°51.947 -999 352 10.2 101390 85
2006-04-19 09:10 51°14.655 2°51.599 -999 351 10.3 101400 85
2006-04-19 09:11 51°14.569 2°51.261 -999 351 10.3 101400 85
2006-04-19 09:12 51°14.495 2°50.942 -999 350 10.3 101400 85
2006-04-19 09:13 51°14.432 2°50.697 -999 343 10.3 101410 85
2006-04-19 09:14 51°14.394 2°50.576 -999 1 10.4 101420 86
2006-04-19 09:15 51°14.395 2°50.562 -999 15 10.3 101430 86
2006-04-19 09:16 51°14.398 2°50.552 -999 17 10.3 101430 86
2006-04-19 09:17 51°14.4 2°50.542 -999 29 10.3 101420 86
2006-04-19 09:18 51°14.403 2°50.532 -999 46 10.2 101430 85
2006-04-19 09:19 51°14.406 2°50.521 -999 53 10.2 101430 86
2006-04-19 09:20 51°14.405 2°50.508 -999 58 10.1 101420 86
2006-04-19 09:21 51°14.397 2°50.498 -999 67 10.1 101420 87
2006-04-19 09:22 51°14.351 2°50.458 -999 2 10.1 101420 87
2006-04-19 09:23 51°14.249 2°50.317 -999 12 10.2 101420 87
2006-04-19 09:24 51°14.122 2°50.158 -999 6 10.2 101410 85
2006-04-19 09:25 51°14.022 2°49.964 -999 1 10.3 101400 84
2006-04-19 09:26 51°13.969 2°49.788 -999 229 10.4 101420 84
2006-04-19 09:27 51°14.007 2°49.695 -999 257 10.4 101420 83
2006-04-19 09:28 51°14.075 2°49.704 -999 210 10.4 101440 83
2006-04-19 09:29 51°14.147 2°49.743 -999 199 10.3 101440 83
2006-04-19 09:30 51°14.213 2°49.783 -999 205 10.3 101430 83
2006-04-19 09:31 51°14.27 2°49.819 -999 192 10.3 101430 84
2006-04-19 09:32 51°14.314 2°49.856 -999 166 10.6 101430 83
2006-04-19 09:33 51°14.34 2°49.905 -999 146 10.5 101430 83
2006-04-19 09:34 51°14.354 2°49.964 -999 135 10.4 101430 83
2006-04-19 09:35 51°14.367 2°50.036 -999 138 10.4 101430 83
2006-04-19 09:36 51°14.39 2°50.103 -999 160 10.4 101430 83
2006-04-19 09:37 51°14.418 2°50.166 -999 155 10.3 101430 84
2006-04-19 09:38 51°14.443 2°50.236 -999 153 10.3 101430 84
2006-04-19 09:39 51°14.468 2°50.303 -999 148 10.3 101440 85
2006-04-19 09:40 51°14.492 2°50.371 -999 135 10.3 101440 85
2006-04-19 09:41 51°14.517 2°50.439 -999 145 10.3 101440 85
2006-04-19 09:42 51°14.543 2°50.506 -999 155 10.3 101440 85
2006-04-19 09:43 51°14.57 2°50.572 -999 148 10.3 101440 84
2006-04-19 09:44 51°14.597 2°50.639 -999 153 10.3 101440 84
2006-04-19 09:45 51°14.624 2°50.705 -999 157 10.2 101440 84
2006-04-19 09:46 51°14.65 2°50.769 -999 154 10.3 101440 84
2006-04-19 09:47 51°14.677 2°50.836 -999 157 10.3 101430 85
2006-04-19 09:48 51°14.701 2°50.901 -999 152 10.3 101430 85
2006-04-19 09:49 51°14.727 2°50.967 -999 155 10.3 101430 84
2006-04-19 09:50 51°14.754 2°51.031 -999 159 10.3 101430 85
2006-04-19 09:51 51°14.78 2°51.097 -999 156 10.3 101430 85
2006-04-19 09:52 51°14.806 2°51.164 -999 153 10.3 101430 85
2006-04-19 09:53 51°14.831 2°51.228 -999 150 10.3 101430 86
2006-04-19 09:54 51°14.857 2°51.291 -999 152 10.3 101430 85
2006-04-19 09:55 51°14.882 2°51.356 -999 155 10.4 101430 85
2006-04-19 09:56 51°14.907 2°51.421 -999 154 10.4 101430 85
2006-04-19 09:57 51°14.934 2°51.485 -999 149 10.4 101430 85
2006-04-19 09:58 51°14.955 2°51.553 -999 134 10.4 101430 85
2006-04-19 09:59 51°14.949 2°51.648 -999 109 10.5 101430 84
2006-04-19 10:00 51°14.912 2°51.753 -999 82 10.5 101430 83
2006-04-19 10:01 51°14.84 2°51.811 -999 53 10.6 101420 83
2006-04-19 10:02 51°14.753 2°51.8 -999 24 10.6 101410 83
2006-04-19 10:03 51°14.687 2°51.716 -999 351 10.7 101420 83
2006-04-19 10:04 51°14.668 2°51.628 -999 322 10.8 101420 83
2006-04-19 10:05 51°14.663 2°51.562 -999 314 10.9 101420 82
2006-04-19 10:06 51°14.663 2°51.51 -999 309 10.9 101430 82
2006-04-19 10:07 51°14.663 2°51.466 -999 305 11 101430 82
2006-04-19 10:08 51°14.662 2°51.432 -999 298 11 101430 82
2006-04-19 10:09 51°14.662 2°51.403 -999 296 11.1 101430 81
2006-04-19 10:10 51°14.661 2°51.377 -999 305 11.1 101430 81
2006-04-19 10:11 51°14.661 2°51.354 -999 309 11.2 101430 81
2006-04-19 10:12 51°14.661 2°51.333 -999 303 11.2 101430 81
2006-04-19 10:13 51°14.65 2°51.244 -999 9 11.2 101420 81
2006-04-19 10:14 51°14.555 2°51.244 -999 93 11 101420 81
2006-04-19 10:15 51°14.543 2°51.483 -999 62 10.9 101430 83
2006-04-19 10:16 51°14.557 2°51.795 -999 57 10.7 101440 83
2006-04-19 10:17 51°14.574 2°52.112 -999 64 10.7 101430 84
2006-04-19 10:18 51°14.586 2°52.43 -999 62 10.7 101430 85
2006-04-19 10:19 51°14.59 2°52.75 -999 67 10.7 101430 85
2006-04-19 10:20 51°14.592 2°53.069 -999 69 10.7 101430 84
2006-04-19 10:21 51°14.623 2°53.38 -999 78 10.8 101430 83
2006-04-19 10:22 51°14.61 2°53.704 -999 80 10.8 101420 82
2006-04-19 10:23 51°14.584 2°54.04 -999 83 10.9 101420 81
2006-04-19 10:24 51°14.552 2°54.367 -999 86 11 101420 80
2006-04-19 10:25 51°14.503 2°54.683 -999 89 11.1 101420 79
2006-04-19 10:26 51°14.407 2°54.974 -999 60 11.2 101410 79
2006-04-19 10:27 51°14.288 2°55.231 -999 55 11.3 101420 79
2006-04-19 10:28 51°14.157 2°55.391 -999 13 11.7 101410 78
2006-04-19 10:29 51°14.054 2°55.469 -999 22 11.9 101410 76
2006-04-19 10:30 51°13.963 2°55.537 -999 8 12 101420 75
2006-04-19 10:31 51°13.884 2°55.593 -999 28 12 101420 74
2006-04-19 10:32 51°13.819 2°55.642 -999 42 12.1 101410 74
2006-04-19 10:33 51°13.766 2°55.705 -999 17 12.2 101420 73
2006-04-19 10:34 51°13.721 2°55.777 -999 90 12.2 101420 73
2006-04-19 10:35 51°13.68 2°55.855 -999 44 12.3 101420 73
2006-04-19 10:36 51°13.645 2°55.934 -999 100 12.2 101410 72
2006-04-19 10:37 51°13.621 2°56.009 -999 127 12.3 101420 73
2006-04-19 10:38 51°13.608 2°56.075 -999 123 12.4 101420 72
2006-04-19 10:39 51°13.602 2°56.097 -999 100 12.5 101420 71